createdAt,value
2022-12-31T00:02:18.266Z,5.47
2022-12-31T00:04:44.908Z,4.30
2022-12-31T00:07:11.507Z,5.88
2022-12-31T00:09:38.095Z,3.22
2022-12-31T00:12:04.957Z,3.53
2022-12-31T00:14:31.672Z,4.20
2022-12-31T00:16:58.351Z,3.80
2022-12-31T00:19:25.070Z,4.65
2022-12-31T00:21:51.991Z,3.30
2022-12-31T00:24:18.610Z,7.90
2022-12-31T00:26:45.205Z,4.77
2022-12-31T00:29:12.166Z,9.27
2022-12-31T00:31:39.505Z,5.07
2022-12-31T00:34:07.042Z,5.80
2022-12-31T00:36:36.116Z,5.85
2022-12-31T00:39:04.597Z,4.17
2022-12-31T00:41:31.800Z,5.78
2022-12-31T00:43:58.930Z,8.25
2022-12-31T00:46:26.354Z,5.45
2022-12-31T00:48:53.802Z,8.20
2022-12-31T00:51:22.816Z,7.03
2022-12-31T00:53:50.030Z,6.35
2022-12-31T00:56:20.289Z,4.28
2022-12-31T00:58:47.418Z,5.35
2022-12-31T01:01:27.676Z,9.15
2022-12-31T01:03:58.819Z,4.97
2022-12-31T01:06:25.995Z,3.80
2022-12-31T01:08:53.622Z,9.18
2022-12-31T01:11:22.519Z,3.67
2022-12-31T01:13:58.598Z,9.38
2022-12-31T01:16:34.535Z,7.10
2022-12-31T01:19:03.693Z,4.20
2022-12-31T01:21:31.656Z,4.85
2022-12-31T01:23:59.248Z,4.30
2022-12-31T01:26:26.987Z,9.23
2022-12-31T01:28:53.860Z,7.83
2022-12-31T01:31:22.061Z,7.03
2022-12-31T01:33:49.018Z,5.65
2022-12-31T01:36:23.562Z,6.22
2022-12-31T01:38:52.957Z,7.40
2022-12-31T01:41:25.381Z,8.03
2022-12-31T01:43:55.215Z,5.57
2022-12-31T01:46:40.404Z,5.35
2022-12-31T01:49:20.679Z,6.47
2022-12-31T01:52:07.392Z,5.85
2022-12-31T01:54:38.145Z,6.03
2022-12-31T01:57:05.255Z,7.43
2022-12-31T01:59:33.672Z,10.73
2022-12-31T02:02:01.066Z,9.80
2022-12-31T02:04:28.763Z,6.03
2022-12-31T02:07:04.745Z,5.57
2022-12-31T02:09:32.197Z,6.80
2022-12-31T02:11:58.900Z,6.97
2022-12-31T02:14:35.315Z,8.38
2022-12-31T02:17:07.777Z,7.40
2022-12-31T02:19:46.210Z,7.40
2022-12-31T02:22:22.732Z,6.95
2022-12-31T02:25:09.705Z,5.40
2022-12-31T02:27:59.077Z,5.55
2022-12-31T02:30:30.866Z,6.53
2022-12-31T02:33:21.881Z,4.13
2022-12-31T02:35:59.268Z,5.95
2022-12-31T02:38:31.254Z,8.50
2022-12-31T02:40:58.057Z,7.80
2022-12-31T02:43:25.630Z,4.75
2022-12-31T02:46:25.910Z,6.27
2022-12-31T02:49:01.588Z,7.72
2022-12-31T02:51:44.577Z,5.78
2022-12-31T02:54:29.784Z,5.93
2022-12-31T02:57:38.127Z,5.50
2022-12-31T03:00:26.220Z,7.20
2022-12-31T03:02:54.069Z,5.43
2022-12-31T03:05:24.042Z,3.58
2022-12-31T03:07:51.007Z,6.32
2022-12-31T03:10:17.844Z,7.90
2022-12-31T03:12:48.184Z,3.97
2022-12-31T03:15:35.313Z,4.72
2022-12-31T03:18:16.578Z,4.55
2022-12-31T03:21:07.910Z,7.82
2022-12-31T03:23:43.717Z,6.57
2022-12-31T03:26:12.079Z,5.57
2022-12-31T03:28:41.211Z,7.78
2022-12-31T03:31:08.082Z,10.02
2022-12-31T03:33:37.644Z,7.65
2022-12-31T03:36:06.998Z,6.47
2022-12-31T03:38:33.934Z,4.47
2022-12-31T03:41:00.554Z,5.13
2022-12-31T03:43:27.133Z,3.25
2022-12-31T03:45:55.177Z,6.63
2022-12-31T03:48:23.609Z,7.97
2022-12-31T03:50:50.980Z,5.63
2022-12-31T03:53:17.700Z,3.63
2022-12-31T03:55:44.687Z,9.02
2022-12-31T03:58:11.276Z,9.57
2022-12-31T04:00:37.944Z,7.53
2022-12-31T04:03:04.588Z,6.67
2022-12-31T04:05:31.257Z,5.97
2022-12-31T04:07:57.988Z,6.40
2022-12-31T04:10:24.641Z,8.48
2022-12-31T04:12:51.229Z,6.78
2022-12-31T04:15:19.668Z,5.00
2022-12-31T04:17:47.210Z,3.22
2022-12-31T04:20:14.611Z,5.60
2022-12-31T04:22:41.479Z,3.50
2022-12-31T04:25:11.618Z,4.60
2022-12-31T04:27:43.598Z,4.23
2022-12-31T04:30:11.848Z,6.30
2022-12-31T04:32:38.527Z,6.97
2022-12-31T04:35:05.623Z,3.70
2022-12-31T04:37:32.319Z,4.65
2022-12-31T04:40:05.110Z,5.30
2022-12-31T04:42:32.335Z,6.38
2022-12-31T04:44:58.960Z,3.20
2022-12-31T04:47:25.537Z,6.35
2022-12-31T04:49:52.161Z,4.07
2022-12-31T04:52:18.869Z,5.37
2022-12-31T04:54:45.496Z,3.75
2022-12-31T04:57:12.183Z,9.32
2022-12-31T04:59:38.797Z,3.53
2022-12-31T05:02:05.560Z,3.70
2022-12-31T05:04:32.382Z,7.40
2022-12-31T05:06:59.003Z,5.20
2022-12-31T05:09:27.422Z,6.05
2022-12-31T05:11:54.239Z,5.53
2022-12-31T05:14:20.841Z,4.60
2022-12-31T05:16:47.508Z,3.70
2022-12-31T05:19:14.161Z,5.40
2022-12-31T05:21:40.889Z,4.13
2022-12-31T05:24:07.942Z,3.67
2022-12-31T05:26:35.038Z,2.90
2022-12-31T05:29:01.685Z,5.50
2022-12-31T05:31:28.321Z,4.85
2022-12-31T05:33:54.886Z,2.58
2022-12-31T05:36:21.457Z,4.80
2022-12-31T05:38:48.060Z,5.10
2022-12-31T05:41:14.689Z,2.90
2022-12-31T05:43:41.328Z,2.92
2022-12-31T05:46:08.251Z,2.90
2022-12-31T05:48:34.872Z,3.70
2022-12-31T05:51:01.519Z,3.80
2022-12-31T05:53:28.269Z,4.77
2022-12-31T05:55:54.833Z,6.85
2022-12-31T05:58:21.427Z,3.97
2022-12-31T06:00:48.145Z,3.97
2022-12-31T06:03:14.866Z,3.40
2022-12-31T06:05:42.620Z,2.80
2022-12-31T06:08:10.932Z,3.00
2022-12-31T06:10:37.595Z,3.67
2022-12-31T06:13:04.666Z,2.72
2022-12-31T06:15:31.408Z,3.63
2022-12-31T06:17:58.087Z,2.93
2022-12-31T06:20:24.700Z,6.20
2022-12-31T06:22:51.283Z,9.55
2022-12-31T06:25:17.908Z,4.72
2022-12-31T06:27:44.596Z,3.97
2022-12-31T06:30:11.817Z,3.63
2022-12-31T06:32:39.360Z,9.50
2022-12-31T06:35:06.756Z,5.45
2022-12-31T06:37:33.371Z,6.05
2022-12-31T06:40:00.348Z,5.15
2022-12-31T06:42:33.069Z,6.67
2022-12-31T06:45:00.161Z,6.28
2022-12-31T06:47:26.797Z,6.15
2022-12-31T06:49:53.487Z,5.85
2022-12-31T06:52:20.530Z,4.97
2022-12-31T06:54:47.915Z,3.97
2022-12-31T06:57:15.064Z,5.82
2022-12-31T06:59:42.100Z,8.05
2022-12-31T07:02:14.638Z,4.95
2022-12-31T07:04:47.109Z,4.95
2022-12-31T07:07:19.943Z,6.53
2022-12-31T07:10:29.976Z,3.92
2022-12-31T07:13:02.120Z,3.42
2022-12-31T07:15:54.777Z,4.97
2022-12-31T07:18:33.660Z,5.30
2022-12-31T07:21:00.684Z,3.90
2022-12-31T07:23:27.577Z,3.47
2022-12-31T07:26:17.163Z,2.17
2022-12-31T07:29:13.880Z,5.50
2022-12-31T07:32:19.482Z,2.70
2022-12-31T07:35:04.264Z,2.43
2022-12-31T07:37:30.786Z,2.60
2022-12-31T07:40:06.111Z,1.75
2022-12-31T07:42:48.995Z,2.78
2022-12-31T07:45:23.764Z,1.42
2022-12-31T07:47:50.677Z,2.10
2022-12-31T07:50:19.050Z,2.95
2022-12-31T07:52:46.616Z,3.50
2022-12-31T07:55:13.425Z,1.02
2022-12-31T07:57:54.910Z,3.80
2022-12-31T08:00:21.852Z,1.87
2022-12-31T08:03:01.881Z,1.45
2022-12-31T08:05:39.117Z,4.80
2022-12-31T08:08:39.340Z,2.25
2022-12-31T08:11:18.879Z,1.85
2022-12-31T08:13:46.571Z,1.83
2022-12-31T08:16:14.068Z,1.92
2022-12-31T08:18:41.311Z,5.05
2022-12-31T08:21:14.219Z,2.53
2022-12-31T08:24:03.796Z,3.33
2022-12-31T08:26:55.751Z,3.33
2022-12-31T08:29:25.114Z,2.78
2022-12-31T08:32:07.616Z,1.85
2022-12-31T08:34:52.244Z,6.13
2022-12-31T08:37:36.635Z,1.52
2022-12-31T08:40:28.494Z,7.27
2022-12-31T08:43:25.628Z,2.00
2022-12-31T08:45:53.984Z,8.27
2022-12-31T08:48:26.804Z,3.38
2022-12-31T08:50:54.159Z,5.43
2022-12-31T08:53:21.536Z,1.93
2022-12-31T08:55:52.762Z,2.75
2022-12-31T08:58:43.460Z,8.30
2022-12-31T09:01:13.716Z,2.55
2022-12-31T09:04:04.782Z,2.97
2022-12-31T09:06:41.929Z,3.10
2022-12-31T09:09:27.207Z,3.00
2022-12-31T09:12:10.479Z,4.65
2022-12-31T09:15:00.565Z,4.97
2022-12-31T09:17:50.875Z,4.53
2022-12-31T09:20:42.285Z,5.07
2022-12-31T09:23:09.903Z,3.95
2022-12-31T09:25:46.786Z,5.93
2022-12-31T09:28:19.565Z,5.63
2022-12-31T09:30:57.040Z,4.75
2022-12-31T09:33:46.600Z,3.60
2022-12-31T09:36:31.802Z,4.50
2022-12-31T09:39:30.256Z,4.78
2022-12-31T09:42:04.594Z,2.38
2022-12-31T09:45:03.611Z,3.40
2022-12-31T09:47:48.429Z,4.43
2022-12-31T09:50:33.209Z,4.03
2022-12-31T09:53:18.932Z,5.85
2022-12-31T09:56:09.372Z,4.97
2022-12-31T09:59:06.310Z,4.80
2022-12-31T10:02:14.596Z,6.13
2022-12-31T10:04:52.395Z,5.28
2022-12-31T10:07:33.175Z,4.47
2022-12-31T10:10:07.380Z,4.55
2022-12-31T10:12:44.490Z,5.32
2022-12-31T10:15:34.172Z,4.57
2022-12-31T10:18:38.324Z,4.65
2022-12-31T10:21:10.680Z,6.00
2022-12-31T10:24:25.271Z,4.72
2022-12-31T10:27:02.994Z,6.15
2022-12-31T10:29:47.962Z,5.10
2022-12-31T10:32:23.717Z,3.28
2022-12-31T10:35:14.232Z,9.00
2022-12-31T10:37:52.985Z,6.20
2022-12-31T10:40:51.995Z,4.30
2022-12-31T10:43:53.002Z,5.57
2022-12-31T10:46:52.030Z,6.63
2022-12-31T10:49:46.562Z,3.97
2022-12-31T10:52:43.623Z,5.47
2022-12-31T10:55:24.833Z,6.47
2022-12-31T10:58:25.351Z,3.70
2022-12-31T11:01:19.873Z,6.45
2022-12-31T11:04:27.255Z,5.63
2022-12-31T11:07:18.303Z,4.95
2022-12-31T11:10:28.545Z,6.60
2022-12-31T11:13:00.904Z,5.93
2022-12-31T11:15:48.279Z,8.98
2022-12-31T11:18:31.989Z,6.95
2022-12-31T11:21:41.366Z,7.05
2022-12-31T11:24:22.967Z,5.80
2022-12-31T11:27:15.430Z,7.57
2022-12-31T11:30:25.362Z,11.07
2022-12-31T11:33:06.272Z,12.88
2022-12-31T11:36:00.655Z,7.90
2022-12-31T11:38:33.076Z,10.35
2022-12-31T11:41:25.930Z,13.87
2022-12-31T11:44:29.589Z,14.02
2022-12-31T11:47:16.536Z,14.90
2022-12-31T11:50:27.145Z,9.55
2022-12-31T11:53:24.269Z,7.95
2022-12-31T11:56:20.149Z,10.27
2022-12-31T11:58:53.128Z,7.28
2022-12-31T12:01:57.804Z,5.25
2022-12-31T12:04:24.617Z,7.47
2022-12-31T12:06:52.467Z,7.70
2022-12-31T12:09:34.309Z,8.00
2022-12-31T12:12:03.753Z,7.25
2022-12-31T12:14:42.378Z,7.40
2022-12-31T12:17:15.852Z,6.50
2022-12-31T12:19:45.184Z,6.20
2022-12-31T12:22:22.542Z,5.60
2022-12-31T12:25:05.345Z,8.65
2022-12-31T12:27:34.600Z,5.63
2022-12-31T12:30:30.537Z,8.80
2022-12-31T12:33:04.624Z,5.47
2022-12-31T12:35:34.189Z,9.57
2022-12-31T12:38:14.177Z,7.97
2022-12-31T12:40:41.086Z,7.85
2022-12-31T12:43:23.417Z,5.57
2022-12-31T12:45:58.858Z,5.07
2022-12-31T12:48:38.081Z,7.87
2022-12-31T12:51:47.586Z,5.63
2022-12-31T12:54:37.723Z,8.40
2022-12-31T12:57:10.363Z,6.85
2022-12-31T13:00:09.161Z,7.47
2022-12-31T13:03:09.921Z,6.90
2022-12-31T13:05:44.064Z,7.47
2022-12-31T13:08:48.116Z,9.98
2022-12-31T13:11:33.007Z,5.68
2022-12-31T13:14:33.027Z,7.72
2022-12-31T13:17:13.460Z,7.60
2022-12-31T13:19:53.364Z,7.10
2022-12-31T13:22:26.116Z,6.22
2022-12-31T13:25:40.633Z,6.05
2022-12-31T13:28:13.300Z,8.00
2022-12-31T13:30:47.143Z,7.60
2022-12-31T13:33:18.436Z,10.90
2022-12-31T13:35:50.017Z,7.43
2022-12-31T13:38:28.577Z,7.78
2022-12-31T13:41:00.803Z,8.87
2022-12-31T13:43:54.729Z,7.53
2022-12-31T13:46:58.947Z,6.77
2022-12-31T13:49:31.580Z,6.22
2022-12-31T13:52:38.851Z,8.63
2022-12-31T13:55:31.468Z,8.57
2022-12-31T13:58:01.993Z,3.42
2022-12-31T14:00:35.840Z,6.00
2022-12-31T14:03:33.175Z,5.03
2022-12-31T14:06:19.539Z,6.90
2022-12-31T14:08:46.329Z,5.10
2022-12-31T14:11:37.212Z,8.63
2022-12-31T14:14:29.975Z,6.00
2022-12-31T14:17:00.425Z,7.93
2022-12-31T14:19:31.698Z,7.15
2022-12-31T14:22:22.212Z,5.50
2022-12-31T14:24:51.053Z,6.57
2022-12-31T14:27:27.059Z,5.87
2022-12-31T14:30:01.940Z,7.65
2022-12-31T14:33:05.133Z,10.27
2022-12-31T14:36:00.437Z,6.03
2022-12-31T14:39:07.120Z,7.05
2022-12-31T14:41:53.709Z,5.83
2022-12-31T14:44:20.313Z,8.93
2022-12-31T14:46:46.896Z,10.05
2022-12-31T14:49:43.247Z,11.20
2022-12-31T14:52:27.204Z,5.80
2022-12-31T14:55:19.495Z,10.00
2022-12-31T15:00:38.293Z,6.88
2022-12-31T15:03:15.532Z,7.25
2022-12-31T15:06:01.641Z,10.00
2022-12-31T15:08:50.849Z,8.60
2022-12-31T15:11:29.440Z,8.95
2022-12-31T15:14:20.269Z,14.00
2022-12-31T15:17:02.486Z,10.52
2022-12-31T15:19:41.297Z,11.27
2022-12-31T15:22:36.320Z,11.20
2022-12-31T15:25:03.926Z,9.77
2022-12-31T15:27:37.544Z,11.07
2022-12-31T15:30:06.187Z,15.32
2022-12-31T15:32:41.374Z,13.00
2022-12-31T15:35:25.782Z,7.87
2022-12-31T15:38:17.891Z,14.15
2022-12-31T15:40:50.690Z,9.20
2022-12-31T15:43:31.192Z,11.65
2022-12-31T15:45:58.269Z,12.73
2022-12-31T15:48:32.227Z,15.47
2022-12-31T15:51:01.339Z,15.10
2022-12-31T15:53:43.260Z,14.32
2022-12-31T15:56:26.607Z,15.45
2022-12-31T15:58:58.297Z,18.65
2022-12-31T16:01:31.221Z,10.30
2022-12-31T16:04:02.176Z,10.55
2022-12-31T16:06:31.377Z,13.30
2022-12-31T16:08:58.377Z,11.60
2022-12-31T16:11:25.643Z,8.10
2022-12-31T16:13:55.116Z,17.00
2022-12-31T16:16:30.059Z,12.35
2022-12-31T16:18:57.146Z,13.93
2022-12-31T16:21:35.738Z,10.48
2022-12-31T16:24:27.153Z,12.55
2022-12-31T16:26:56.326Z,18.33
2022-12-31T16:29:24.138Z,11.07
2022-12-31T16:31:53.693Z,12.10
2022-12-31T16:34:26.090Z,10.23
2022-12-31T16:37:07.362Z,18.08
2022-12-31T16:39:38.760Z,14.10
2022-12-31T16:42:14.530Z,16.08
2022-12-31T16:44:41.685Z,14.15
2022-12-31T16:47:15.139Z,13.25
2022-12-31T16:49:42.573Z,13.10
2022-12-31T16:52:37.155Z,12.20
2022-12-31T16:55:10.215Z,11.77
2022-12-31T16:57:37.243Z,11.65
2022-12-31T17:00:07.008Z,12.10
2022-12-31T17:02:38.814Z,11.88
2022-12-31T17:05:18.936Z,14.20
2022-12-31T17:07:45.632Z,12.52
2022-12-31T17:10:19.412Z,12.68
2022-12-31T17:13:27.963Z,10.57
2022-12-31T17:15:45.308Z,11.82
2022-12-31T17:18:20.603Z,9.63
2022-12-31T17:20:49.072Z,12.05
2022-12-31T17:23:34.131Z,12.40
2022-12-31T17:26:12.302Z,14.13
2022-12-31T17:28:47.741Z,11.57
2022-12-31T17:31:33.456Z,7.17
2022-12-31T17:34:12.453Z,8.05
2022-12-31T17:36:55.359Z,8.68
2022-12-31T17:39:23.839Z,9.63
2022-12-31T17:41:52.585Z,12.63
2022-12-31T17:44:23.301Z,11.40
2022-12-31T17:46:50.482Z,14.75
2022-12-31T17:49:17.452Z,9.48
2022-12-31T17:51:47.589Z,13.68
2022-12-31T17:54:16.108Z,10.48
2022-12-31T17:56:43.780Z,9.03
2022-12-31T17:59:17.080Z,7.68
2022-12-31T18:01:43.879Z,8.50
2022-12-31T18:04:15.543Z,12.93
2022-12-31T18:06:42.668Z,9.80
2022-12-31T18:09:09.741Z,10.37
2022-12-31T18:11:38.724Z,12.27
2022-12-31T18:14:05.300Z,16.70
2022-12-31T18:16:31.957Z,10.43
2022-12-31T18:19:00.720Z,12.50
2022-12-31T18:21:32.290Z,10.13
2022-12-31T18:26:27.828Z,13.90
2022-12-31T18:28:54.633Z,12.77
2022-12-31T18:31:27.576Z,13.48
2022-12-31T18:33:56.526Z,9.80
2022-12-31T18:36:24.363Z,10.68
2022-12-31T18:38:51.268Z,11.82
2022-12-31T18:41:21.281Z,13.60
2022-12-31T18:43:48.995Z,9.52
2022-12-31T18:46:19.687Z,9.50
2022-12-31T18:48:46.431Z,12.00
2022-12-31T18:51:19.241Z,9.55
2022-12-31T18:53:46.128Z,16.50
2022-12-31T18:56:15.688Z,13.25
2022-12-31T18:58:45.493Z,10.47
2022-12-31T19:01:38.500Z,13.75
2022-12-31T19:04:18.690Z,11.27
2022-12-31T19:06:48.840Z,11.88
2022-12-31T19:09:43.462Z,11.98
2022-12-31T19:12:03.019Z,9.03
2022-12-31T19:14:29.704Z,13.10
2022-12-31T19:16:58.460Z,10.20
2022-12-31T19:19:25.460Z,12.73
2022-12-31T19:21:52.060Z,11.35
2022-12-31T19:24:26.936Z,8.83
2022-12-31T19:26:54.559Z,10.13
2022-12-31T19:29:23.720Z,11.88
2022-12-31T19:31:50.596Z,14.60
2022-12-31T19:34:17.379Z,13.52
2022-12-31T19:36:44.486Z,12.23
2022-12-31T19:39:19.299Z,15.80
2022-12-31T19:41:50.135Z,11.75
2022-12-31T19:44:21.219Z,8.70
2022-12-31T19:46:49.150Z,11.85
2022-12-31T19:49:15.755Z,15.40
2022-12-31T19:51:42.392Z,9.90
2022-12-31T19:54:09.964Z,14.90
2022-12-31T19:56:36.655Z,11.63
2022-12-31T19:59:08.385Z,16.23
2022-12-31T20:01:35.135Z,17.00
2022-12-31T20:04:01.861Z,12.85
2022-12-31T20:06:28.531Z,10.75
2022-12-31T20:08:55.148Z,11.60
2022-12-31T20:11:23.639Z,10.88
2022-12-31T20:13:52.273Z,14.60
2022-12-31T20:16:21.720Z,16.88
2022-12-31T20:18:51.272Z,11.00
2022-12-31T20:21:24.692Z,15.07
2022-12-31T20:23:52.877Z,12.60
2022-12-31T20:26:22.050Z,10.67
2022-12-31T20:29:03.365Z,13.70
2022-12-31T20:31:32.018Z,13.07
2022-12-31T20:34:04.138Z,18.10
2022-12-31T20:39:16.844Z,16.77
2022-12-31T20:41:43.744Z,16.02
2022-12-31T20:44:27.326Z,15.10
2022-12-31T20:46:54.470Z,15.38
2022-12-31T20:49:52.256Z,15.13
2022-12-31T20:52:14.985Z,16.20
2022-12-31T20:54:42.062Z,14.43
2022-12-31T20:57:33.491Z,15.13
2022-12-31T21:00:01.163Z,20.08
2022-12-31T21:02:41.026Z,17.63
2022-12-31T21:05:15.171Z,16.13
2022-12-31T21:07:47.541Z,14.07
2022-12-31T21:10:15.233Z,14.70
2022-12-31T21:12:45.815Z,10.60
2022-12-31T21:15:13.608Z,15.57
2022-12-31T21:17:43.707Z,15.00
2022-12-31T21:20:11.200Z,11.95
2022-12-31T21:26:34.810Z,11.85
2022-12-31T21:29:34.248Z,12.98
2022-12-31T21:32:03.894Z,14.60
2022-12-31T21:35:00.389Z,12.55
2022-12-31T21:37:58.629Z,17.20
2022-12-31T21:40:37.061Z,13.18
2022-12-31T21:43:05.162Z,12.80
2022-12-31T21:45:33.105Z,16.17
2022-12-31T21:48:19.082Z,15.07
2022-12-31T21:50:53.045Z,15.02
2022-12-31T21:53:32.167Z,18.52
2022-12-31T21:59:17.777Z,18.60
2022-12-31T22:02:06.374Z,11.57
2022-12-31T22:05:01.605Z,10.85
2022-12-31T22:07:26.059Z,11.60
2022-12-31T22:09:54.154Z,11.73
2022-12-31T22:12:21.258Z,11.87
2022-12-31T22:15:14.502Z,14.73
2022-12-31T22:17:39.853Z,15.77
2022-12-31T22:22:56.618Z,11.23
2022-12-31T22:25:28.059Z,12.60
2022-12-31T22:30:41.963Z,15.52
2022-12-31T22:33:10.716Z,12.60
2022-12-31T22:35:39.350Z,12.65
2022-12-31T22:38:12.956Z,11.30
2022-12-31T22:40:39.582Z,16.60
2022-12-31T22:44:08.051Z,15.57
2022-12-31T22:46:37.635Z,13.98
2022-12-31T22:49:07.482Z,14.32
2022-12-31T22:51:56.361Z,19.10
2022-12-31T22:54:51.106Z,14.55
2022-12-31T22:57:26.584Z,11.60
2022-12-31T23:03:03.545Z,13.95
2022-12-31T23:05:37.818Z,11.93
2022-12-31T23:08:11.858Z,15.57
2022-12-31T23:10:59.884Z,12.60
2022-12-31T23:14:00.128Z,18.23
2022-12-31T23:16:47.724Z,14.60
2022-12-31T23:19:44.996Z,17.93
2022-12-31T23:22:30.447Z,17.65
2022-12-31T23:24:59.185Z,13.45
2022-12-31T23:27:36.388Z,12.93
2022-12-31T23:30:05.413Z,14.00
2022-12-31T23:32:32.215Z,15.70
2022-12-31T23:34:58.903Z,14.57
2022-12-31T23:37:28.035Z,17.15
2022-12-31T23:39:54.689Z,20.95
2022-12-31T23:42:22.730Z,18.90
2022-12-31T23:44:49.475Z,21.00
2022-12-31T23:47:27.429Z,26.15
2022-12-31T23:50:06.381Z,34.53
2022-12-31T23:52:38.164Z,21.45
2022-12-31T23:55:11.868Z,28.83
2022-12-31T23:57:41.528Z,26.93
